sensor_id;sensor_type;location;lat;lon;timestamp;temperature;humidity
74153;DHT22;62505;46.070;14.492;2023-05-15T00:02:12;21.50;86.60
74153;DHT22;62505;46.070;14.492;2023-05-15T00:04:39;21.50;86.70
74153;DHT22;62505;46.070;14.492;2023-05-15T00:07:07;21.50;86.60
74153;DHT22;62505;46.070;14.492;2023-05-15T00:09:34;21.50;86.40
74153;DHT22;62505;46.070;14.492;2023-05-15T00:12:01;21.50;86.60
74153;DHT22;62505;46.070;14.492;2023-05-15T00:14:28;21.50;86.50
74153;DHT22;62505;46.070;14.492;2023-05-15T00:16:55;21.50;86.70
74153;DHT22;62505;46.070;14.492;2023-05-15T00:19:22;21.50;86.60
74153;DHT22;62505;46.070;14.492;2023-05-15T00:21:49;21.50;86.60
74153;DHT22;62505;46.070;14.492;2023-05-15T00:24:18;21.50;86.60
74153;DHT22;62505;46.070;14.492;2023-05-15T00:26:45;21.50;86.80
74153;DHT22;62505;46.070;14.492;2023-05-15T00:29:12;21.50;86.70
74153;DHT22;62505;46.070;14.492;2023-05-15T00:31:39;21.50;86.80
74153;DHT22;62505;46.070;14.492;2023-05-15T00:34:05;21.50;86.80
74153;DHT22;62505;46.070;14.492;2023-05-15T00:36:32;21.50;86.80
74153;DHT22;62505;46.070;14.492;2023-05-15T00:39:00;21.50;86.40
74153;DHT22;62505;46.070;14.492;2023-05-15T00:41:29;21.50;86.80
74153;DHT22;62505;46.070;14.492;2023-05-15T00:43:57;21.50;86.80
74153;DHT22;62505;46.070;14.492;2023-05-15T00:46:27;21.50;86.90
74153;DHT22;62505;46.070;14.492;2023-05-15T00:48:55;21.50;86.80
74153;DHT22;62505;46.070;14.492;2023-05-15T00:51:24;21.50;87.00
74153;DHT22;62505;46.070;14.492;2023-05-15T00:53:52;21.50;87.00
74153;DHT22;62505;46.070;14.492;2023-05-15T00:56:19;21.50;87.00
74153;DHT22;62505;46.070;14.492;2023-05-15T00:58:48;21.50;87.00
74153;DHT22;62505;46.070;14.492;2023-05-15T01:01:16;21.50;87.00
74153;DHT22;62505;46.070;14.492;2023-05-15T01:03:44;21.50;87.00
74153;DHT22;62505;46.070;14.492;2023-05-15T01:06:11;21.50;87.10
74153;DHT22;62505;46.070;14.492;2023-05-15T01:08:41;21.50;87.00
74153;DHT22;62505;46.070;14.492;2023-05-15T01:11:10;21.50;87.10
74153;DHT22;62505;46.070;14.492;2023-05-15T01:13:38;21.50;87.20
74153;DHT22;62505;46.070;14.492;2023-05-15T01:16:07;21.50;87.10
74153;DHT22;62505;46.070;14.492;2023-05-15T01:18:34;21.50;87.00
74153;DHT22;62505;46.070;14.492;2023-05-15T01:21:25;21.50;87.10
74153;DHT22;62505;46.070;14.492;2023-05-15T01:24:03;21.50;87.10
74153;DHT22;62505;46.070;14.492;2023-05-15T01:26:46;21.50;87.10
74153;DHT22;62505;46.070;14.492;2023-05-15T01:29:24;21.50;87.90
74153;DHT22;62505;46.070;14.492;2023-05-15T01:31:56;21.50;87.80
74153;DHT22;62505;46.070;14.492;2023-05-15T01:34:30;21.50;87.20
74153;DHT22;62505;46.070;14.492;2023-05-15T01:37:01;21.50;87.10
74153;DHT22;62505;46.070;14.492;2023-05-15T01:39:32;21.50;87.30
74153;DHT22;62505;46.070;14.492;2023-05-15T01:42:07;21.50;87.20
74153;DHT22;62505;46.070;14.492;2023-05-15T01:44:39;21.50;87.10
74153;DHT22;62505;46.070;14.492;2023-05-15T01:47:11;21.50;87.20
74153;DHT22;62505;46.070;14.492;2023-05-15T01:49:41;21.50;87.30
74153;DHT22;62505;46.070;14.492;2023-05-15T01:52:13;21.50;87.30
74153;DHT22;62505;46.070;14.492;2023-05-15T01:54:42;21.50;87.30
74153;DHT22;62505;46.070;14.492;2023-05-15T01:57:09;21.50;87.30
74153;DHT22;62505;46.070;14.492;2023-05-15T01:59:39;21.50;87.30
74153;DHT22;62505;46.070;14.492;2023-05-15T02:02:07;21.50;87.20
74153;DHT22;62505;46.070;14.492;2023-05-15T02:04:36;21.50;87.20
74153;DHT22;62505;46.070;14.492;2023-05-15T02:07:07;21.50;87.40
74153;DHT22;62505;46.070;14.492;2023-05-15T02:09:35;21.50;87.30
74153;DHT22;62505;46.070;14.492;2023-05-15T02:12:02;21.50;88.10
74153;DHT22;62505;46.070;14.492;2023-05-15T02:14:30;21.50;87.40
74153;DHT22;62505;46.070;14.492;2023-05-15T02:16:59;21.50;87.20
74153;DHT22;62505;46.070;14.492;2023-05-15T02:19:26;21.50;87.20
74153;DHT22;62505;46.070;14.492;2023-05-15T02:21:54;21.50;87.20
74153;DHT22;62505;46.070;14.492;2023-05-15T02:24:20;21.50;87.30
74153;DHT22;62505;46.070;14.492;2023-05-15T02:26:55;21.50;87.20
74153;DHT22;62505;46.070;14.492;2023-05-15T02:29:30;21.50;87.20
74153;DHT22;62505;46.070;14.492;2023-05-15T02:32:06;21.50;87.20
74153;DHT22;62505;46.070;14.492;2023-05-15T02:34:41;21.50;87.50
74153;DHT22;62505;46.070;14.492;2023-05-15T02:37:13;21.50;87.30
74153;DHT22;62505;46.070;14.492;2023-05-15T02:39:43;21.50;87.20
74153;DHT22;62505;46.070;14.492;2023-05-15T02:42:12;21.50;87.20
74153;DHT22;62505;46.070;14.492;2023-05-15T02:44:40;21.50;87.40
74153;DHT22;62505;46.070;14.492;2023-05-15T02:47:10;21.50;87.40
74153;DHT22;62505;46.070;14.492;2023-05-15T02:49:37;21.50;87.30
74153;DHT22;62505;46.070;14.492;2023-05-15T02:52:05;21.50;87.30
74153;DHT22;62505;46.070;14.492;2023-05-15T02:54:32;21.50;87.30
74153;DHT22;62505;46.070;14.492;2023-05-15T02:56:59;21.50;87.20
74153;DHT22;62505;46.070;14.492;2023-05-15T02:59:26;21.50;87.20
74153;DHT22;62505;46.070;14.492;2023-05-15T03:01:53;21.50;87.30
74153;DHT22;62505;46.070;14.492;2023-05-15T03:04:21;21.50;87.30
74153;DHT22;62505;46.070;14.492;2023-05-15T03:06:48;21.50;87.20
74153;DHT22;62505;46.070;14.492;2023-05-15T03:09:14;21.60;87.20
74153;DHT22;62505;46.070;14.492;2023-05-15T03:11:42;21.50;88.00
74153;DHT22;62505;46.070;14.492;2023-05-15T03:14:09;21.50;87.20
74153;DHT22;62505;46.070;14.492;2023-05-15T03:16:37;21.50;87.20
74153;DHT22;62505;46.070;14.492;2023-05-15T03:19:04;21.50;87.20
74153;DHT22;62505;46.070;14.492;2023-05-15T03:21:32;21.50;87.30
74153;DHT22;62505;46.070;14.492;2023-05-15T03:23:59;21.50;87.20
74153;DHT22;62505;46.070;14.492;2023-05-15T03:26:26;21.60;87.30
74153;DHT22;62505;46.070;14.492;2023-05-15T03:28:54;21.50;87.30
74153;DHT22;62505;46.070;14.492;2023-05-15T03:31:21;21.60;87.30
74153;DHT22;62505;46.070;14.492;2023-05-15T03:33:48;21.60;87.30
74153;DHT22;62505;46.070;14.492;2023-05-15T03:36:16;21.50;87.20
74153;DHT22;62505;46.070;14.492;2023-05-15T03:38:44;21.50;87.20
74153;DHT22;62505;46.070;14.492;2023-05-15T03:41:11;21.50;87.20
74153;DHT22;62505;46.070;14.492;2023-05-15T03:43:37;21.60;87.20
74153;DHT22;62505;46.070;14.492;2023-05-15T03:46:04;21.50;87.10
74153;DHT22;62505;46.070;14.492;2023-05-15T03:48:31;21.50;87.10
74153;DHT22;62505;46.070;14.492;2023-05-15T03:50:58;21.60;87.20
74153;DHT22;62505;46.070;14.492;2023-05-15T03:53:25;21.60;87.90
74153;DHT22;62505;46.070;14.492;2023-05-15T03:55:53;21.50;87.10
74153;DHT22;62505;46.070;14.492;2023-05-15T03:58:20;21.60;87.20
74153;DHT22;62505;46.070;14.492;2023-05-15T04:00:47;21.60;87.00
74153;DHT22;62505;46.070;14.492;2023-05-15T04:03:14;21.60;87.10
74153;DHT22;62505;46.070;14.492;2023-05-15T04:05:41;21.60;87.20
74153;DHT22;62505;46.070;14.492;2023-05-15T04:08:08;21.60;87.10
74153;DHT22;62505;46.070;14.492;2023-05-15T04:10:37;21.60;87.10
74153;DHT22;62505;46.070;14.492;2023-05-15T04:13:05;21.60;87.00
74153;DHT22;62505;46.070;14.492;2023-05-15T04:15:32;21.60;87.00
74153;DHT22;62505;46.070;14.492;2023-05-15T04:17:58;21.60;87.00
74153;DHT22;62505;46.070;14.492;2023-05-15T04:20:25;21.60;88.40
74153;DHT22;62505;46.070;14.492;2023-05-15T04:22:52;21.60;87.70
74153;DHT22;62505;46.070;14.492;2023-05-15T04:25:19;21.60;87.60
74153;DHT22;62505;46.070;14.492;2023-05-15T04:27:46;21.60;86.20
74153;DHT22;62505;46.070;14.492;2023-05-15T04:30:15;21.60;84.00
74153;DHT22;62505;46.070;14.492;2023-05-15T04:32:42;21.60;81.80
74153;DHT22;62505;46.070;14.492;2023-05-15T04:35:09;21.60;79.80
74153;DHT22;62505;46.070;14.492;2023-05-15T04:37:38;21.50;79.10
74153;DHT22;62505;46.070;14.492;2023-05-15T04:40:06;21.60;85.70
74153;DHT22;62505;46.070;14.492;2023-05-15T04:42:34;21.70;85.30
74153;DHT22;62505;46.070;14.492;2023-05-15T04:45:01;21.80;84.70
74153;DHT22;62505;46.070;14.492;2023-05-15T04:47:29;21.80;83.00
74153;DHT22;62505;46.070;14.492;2023-05-15T04:49:56;21.70;83.40
74153;DHT22;62505;46.070;14.492;2023-05-15T04:52:23;21.70;84.20
74153;DHT22;62505;46.070;14.492;2023-05-15T04:54:50;21.70;84.20
74153;DHT22;62505;46.070;14.492;2023-05-15T04:57:20;21.70;84.10
74153;DHT22;62505;46.070;14.492;2023-05-15T04:59:47;21.70;84.20
74153;DHT22;62505;46.070;14.492;2023-05-15T05:02:14;21.70;84.20
74153;DHT22;62505;46.070;14.492;2023-05-15T05:04:42;21.70;84.20
74153;DHT22;62505;46.070;14.492;2023-05-15T05:07:10;21.70;84.00
74153;DHT22;62505;46.070;14.492;2023-05-15T05:09:37;21.70;84.40
74153;DHT22;62505;46.070;14.492;2023-05-15T05:12:05;21.60;84.40
74153;DHT22;62505;46.070;14.492;2023-05-15T05:14:32;21.70;84.60
74153;DHT22;62505;46.070;14.492;2023-05-15T05:16:59;21.70;84.50
74153;DHT22;62505;46.070;14.492;2023-05-15T05:19:26;21.70;84.60
74153;DHT22;62505;46.070;14.492;2023-05-15T05:21:55;21.70;84.60
74153;DHT22;62505;46.070;14.492;2023-05-15T05:24:22;21.70;84.60
74153;DHT22;62505;46.070;14.492;2023-05-15T05:26:49;21.70;84.80
74153;DHT22;62505;46.070;14.492;2023-05-15T05:29:16;21.70;84.70
74153;DHT22;62505;46.070;14.492;2023-05-15T05:31:45;21.70;84.60
74153;DHT22;62505;46.070;14.492;2023-05-15T05:34:12;21.70;84.70
74153;DHT22;62505;46.070;14.492;2023-05-15T05:36:39;21.70;84.80
74153;DHT22;62505;46.070;14.492;2023-05-15T05:39:07;21.70;84.80
74153;DHT22;62505;46.070;14.492;2023-05-15T05:41:34;21.70;84.70
74153;DHT22;62505;46.070;14.492;2023-05-15T05:44:01;21.70;84.90
74153;DHT22;62505;46.070;14.492;2023-05-15T05:46:28;21.70;85.00
74153;DHT22;62505;46.070;14.492;2023-05-15T05:48:55;21.70;85.20
74153;DHT22;62505;46.070;14.492;2023-05-15T05:51:22;21.70;85.10
74153;DHT22;62505;46.070;14.492;2023-05-15T05:53:48;21.70;84.90
74153;DHT22;62505;46.070;14.492;2023-05-15T05:56:17;21.70;85.00
74153;DHT22;62505;46.070;14.492;2023-05-15T05:58:44;21.70;84.90
74153;DHT22;62505;46.070;14.492;2023-05-15T06:01:11;21.70;85.10
74153;DHT22;62505;46.070;14.492;2023-05-15T06:03:38;21.70;84.70
74153;DHT22;62505;46.070;14.492;2023-05-15T06:06:05;21.70;84.80
74153;DHT22;62505;46.070;14.492;2023-05-15T06:08:32;21.70;85.00
74153;DHT22;62505;46.070;14.492;2023-05-15T06:10:58;21.70;85.00
74153;DHT22;62505;46.070;14.492;2023-05-15T06:13:27;21.70;85.00
74153;DHT22;62505;46.070;14.492;2023-05-15T06:15:53;21.70;85.00
74153;DHT22;62505;46.070;14.492;2023-05-15T06:18:20;21.70;84.90
74153;DHT22;62505;46.070;14.492;2023-05-15T06:20:47;21.70;84.80
74153;DHT22;62505;46.070;14.492;2023-05-15T06:23:14;21.70;85.00
74153;DHT22;62505;46.070;14.492;2023-05-15T06:25:41;21.70;85.10
74153;DHT22;62505;46.070;14.492;2023-05-15T06:28:08;21.70;84.90
74153;DHT22;62505;46.070;14.492;2023-05-15T06:30:36;21.70;85.10
74153;DHT22;62505;46.070;14.492;2023-05-15T06:33:03;21.70;85.00
74153;DHT22;62505;46.070;14.492;2023-05-15T06:35:30;21.70;85.20
74153;DHT22;62505;46.070;14.492;2023-05-15T06:37:57;21.70;85.00
74153;DHT22;62505;46.070;14.492;2023-05-15T06:40:24;21.70;84.70
74153;DHT22;62505;46.070;14.492;2023-05-15T06:42:51;21.70;85.20
74153;DHT22;62505;46.070;14.492;2023-05-15T06:45:18;21.70;84.90
74153;DHT22;62505;46.070;14.492;2023-05-15T06:47:46;21.70;84.90
74153;DHT22;62505;46.070;14.492;2023-05-15T06:50:13;21.70;85.10
74153;DHT22;62505;46.070;14.492;2023-05-15T06:52:39;21.70;85.20
74153;DHT22;62505;46.070;14.492;2023-05-15T06:55:07;21.80;85.10
74153;DHT22;62505;46.070;14.492;2023-05-15T06:57:34;21.70;85.00
74153;DHT22;62505;46.070;14.492;2023-05-15T07:00:01;21.80;85.20
74153;DHT22;62505;46.070;14.492;2023-05-15T07:02:29;21.80;85.20
74153;DHT22;62505;46.070;14.492;2023-05-15T07:04:57;21.80;85.10
74153;DHT22;62505;46.070;14.492;2023-05-15T07:07:24;21.80;85.40
74153;DHT22;62505;46.070;14.492;2023-05-15T07:09:50;21.80;85.30
74153;DHT22;62505;46.070;14.492;2023-05-15T07:12:17;21.80;85.70
74153;DHT22;62505;46.070;14.492;2023-05-15T07:14:44;21.80;85.30
74153;DHT22;62505;46.070;14.492;2023-05-15T07:17:11;21.80;85.40
74153;DHT22;62505;46.070;14.492;2023-05-15T07:19:38;21.80;85.50
74153;DHT22;62505;46.070;14.492;2023-05-15T07:22:06;21.80;85.60
74153;DHT22;62505;46.070;14.492;2023-05-15T07:24:33;21.80;85.50
74153;DHT22;62505;46.070;14.492;2023-05-15T07:27:00;21.90;86.00
74153;DHT22;62505;46.070;14.492;2023-05-15T07:29:26;21.90;85.90
74153;DHT22;62505;46.070;14.492;2023-05-15T07:31:53;21.90;85.80
74153;DHT22;62505;46.070;14.492;2023-05-15T07:34:20;21.90;86.30
74153;DHT22;62505;46.070;14.492;2023-05-15T07:36:47;21.90;86.00
74153;DHT22;62505;46.070;14.492;2023-05-15T07:39:16;21.90;85.60
74153;DHT22;62505;46.070;14.492;2023-05-15T07:41:42;21.90;85.80
74153;DHT22;62505;46.070;14.492;2023-05-15T07:44:11;21.90;85.80
74153;DHT22;62505;46.070;14.492;2023-05-15T07:46:38;21.90;85.70
74153;DHT22;62505;46.070;14.492;2023-05-15T07:49:05;21.90;84.80
74153;DHT22;62505;46.070;14.492;2023-05-15T07:51:32;21.90;85.60
74153;DHT22;62505;46.070;14.492;2023-05-15T07:53:59;21.90;85.40
74153;DHT22;62505;46.070;14.492;2023-05-15T07:56:28;21.90;85.20
74153;DHT22;62505;46.070;14.492;2023-05-15T07:58:55;22.00;85.70
74153;DHT22;62505;46.070;14.492;2023-05-15T08:01:22;22.00;85.20
74153;DHT22;62505;46.070;14.492;2023-05-15T08:03:49;22.00;85.10
74153;DHT22;62505;46.070;14.492;2023-05-15T08:06:16;22.00;85.60
74153;DHT22;62505;46.070;14.492;2023-05-15T08:08:43;22.00;85.10
74153;DHT22;62505;46.070;14.492;2023-05-15T08:11:09;22.10;85.80
74153;DHT22;62505;46.070;14.492;2023-05-15T08:13:38;22.00;85.50
74153;DHT22;62505;46.070;14.492;2023-05-15T08:16:05;22.00;86.00
74153;DHT22;62505;46.070;14.492;2023-05-15T08:18:32;22.00;85.80
74153;DHT22;62505;46.070;14.492;2023-05-15T08:20:58;22.00;87.30
74153;DHT22;62505;46.070;14.492;2023-05-15T08:23:25;22.00;85.90
74153;DHT22;62505;46.070;14.492;2023-05-15T08:25:52;22.10;86.40
74153;DHT22;62505;46.070;14.492;2023-05-15T08:28:19;22.10;87.40
74153;DHT22;62505;46.070;14.492;2023-05-15T08:30:47;22.10;87.30
74153;DHT22;62505;46.070;14.492;2023-05-15T08:33:14;22.10;87.20
74153;DHT22;62505;46.070;14.492;2023-05-15T08:35:41;22.10;87.70
74153;DHT22;62505;46.070;14.492;2023-05-15T08:38:08;22.10;86.70
74153;DHT22;62505;46.070;14.492;2023-05-15T08:40:34;22.10;87.10
74153;DHT22;62505;46.070;14.492;2023-05-15T08:43:04;22.10;87.30
74153;DHT22;62505;46.070;14.492;2023-05-15T08:45:32;22.10;90.30
74153;DHT22;62505;46.070;14.492;2023-05-15T08:48:01;22.10;88.50
74153;DHT22;62505;46.070;14.492;2023-05-15T08:50:33;22.10;89.20
74153;DHT22;62505;46.070;14.492;2023-05-15T08:53:00;22.10;88.50
74153;DHT22;62505;46.070;14.492;2023-05-15T08:55:27;22.10;90.10
74153;DHT22;62505;46.070;14.492;2023-05-15T08:57:54;22.10;89.90
74153;DHT22;62505;46.070;14.492;2023-05-15T09:00:21;22.20;89.20
74153;DHT22;62505;46.070;14.492;2023-05-15T09:02:48;22.20;89.60
74153;DHT22;62505;46.070;14.492;2023-05-15T09:05:17;22.20;88.70
74153;DHT22;62505;46.070;14.492;2023-05-15T09:07:45;22.20;89.80
74153;DHT22;62505;46.070;14.492;2023-05-15T09:10:13;22.20;89.00
74153;DHT22;62505;46.070;14.492;2023-05-15T09:12:41;22.20;88.80
74153;DHT22;62505;46.070;14.492;2023-05-15T09:15:10;22.20;89.20
74153;DHT22;62505;46.070;14.492;2023-05-15T09:17:38;22.20;88.60
74153;DHT22;62505;46.070;14.492;2023-05-15T09:20:06;22.20;88.90
74153;DHT22;62505;46.070;14.492;2023-05-15T09:22:35;22.20;89.00
74153;DHT22;62505;46.070;14.492;2023-05-15T09:25:02;22.20;88.30
74153;DHT22;62505;46.070;14.492;2023-05-15T09:27:29;22.20;87.90
74153;DHT22;62505;46.070;14.492;2023-05-15T09:30:07;22.20;86.40
74153;DHT22;62505;46.070;14.492;2023-05-15T09:32:35;22.20;85.20
74153;DHT22;62505;46.070;14.492;2023-05-15T09:35:03;22.20;85.20
74153;DHT22;62505;46.070;14.492;2023-05-15T09:37:32;22.20;85.50
74153;DHT22;62505;46.070;14.492;2023-05-15T09:40:08;22.20;85.40
74153;DHT22;62505;46.070;14.492;2023-05-15T09:42:35;22.20;85.60
74153;DHT22;62505;46.070;14.492;2023-05-15T09:45:03;22.20;86.00
74153;DHT22;62505;46.070;14.492;2023-05-15T09:47:30;22.20;86.10
74153;DHT22;62505;46.070;14.492;2023-05-15T09:49:57;22.10;85.90
74153;DHT22;62505;46.070;14.492;2023-05-15T09:52:25;22.10;86.00
74153;DHT22;62505;46.070;14.492;2023-05-15T09:54:53;22.10;86.90
74153;DHT22;62505;46.070;14.492;2023-05-15T09:57:21;22.10;86.20
74153;DHT22;62505;46.070;14.492;2023-05-15T09:59:48;22.20;86.30
74153;DHT22;62505;46.070;14.492;2023-05-15T10:02:22;22.10;86.20
74153;DHT22;62505;46.070;14.492;2023-05-15T10:04:55;22.10;86.40
74153;DHT22;62505;46.070;14.492;2023-05-15T10:07:29;22.10;86.20
74153;DHT22;62505;46.070;14.492;2023-05-15T10:09:57;22.10;86.20
74153;DHT22;62505;46.070;14.492;2023-05-15T10:12:26;22.20;86.20
74153;DHT22;62505;46.070;14.492;2023-05-15T10:14:55;22.10;86.80
74153;DHT22;62505;46.070;14.492;2023-05-15T10:17:23;22.10;86.10
74153;DHT22;62505;46.070;14.492;2023-05-15T10:19:50;22.10;86.30
74153;DHT22;62505;46.070;14.492;2023-05-15T10:22:20;22.10;86.10
74153;DHT22;62505;46.070;14.492;2023-05-15T10:24:50;22.10;86.10
74153;DHT22;62505;46.070;14.492;2023-05-15T10:27:19;22.10;86.20
74153;DHT22;62505;46.070;14.492;2023-05-15T10:29:49;22.10;86.10
74153;DHT22;62505;46.070;14.492;2023-05-15T10:32:17;22.10;86.10
74153;DHT22;62505;46.070;14.492;2023-05-15T10:34:45;22.10;86.10
74153;DHT22;62505;46.070;14.492;2023-05-15T10:37:13;22.10;86.10
74153;DHT22;62505;46.070;14.492;2023-05-15T10:39:41;22.10;86.00
74153;DHT22;62505;46.070;14.492;2023-05-15T10:42:09;22.10;85.90
74153;DHT22;62505;46.070;14.492;2023-05-15T10:44:37;22.10;85.90
74153;DHT22;62505;46.070;14.492;2023-05-15T10:47:05;22.10;85.90
74153;DHT22;62505;46.070;14.492;2023-05-15T10:49:32;22.10;85.90
74153;DHT22;62505;46.070;14.492;2023-05-15T10:52:00;22.10;85.80
74153;DHT22;62505;46.070;14.492;2023-05-15T10:54:28;22.10;85.80
74153;DHT22;62505;46.070;14.492;2023-05-15T10:56:55;22.10;86.60
74153;DHT22;62505;46.070;14.492;2023-05-15T10:59:30;22.10;85.50
74153;DHT22;62505;46.070;14.492;2023-05-15T11:01:57;22.10;85.60
74153;DHT22;62505;46.070;14.492;2023-05-15T11:04:45;22.10;85.60
74153;DHT22;62505;46.070;14.492;2023-05-15T11:07:13;22.10;85.60
74153;DHT22;62505;46.070;14.492;2023-05-15T11:09:41;22.10;85.60
74153;DHT22;62505;46.070;14.492;2023-05-15T11:12:08;22.10;85.60
74153;DHT22;62505;46.070;14.492;2023-05-15T11:14:38;22.10;85.50
74153;DHT22;62505;46.070;14.492;2023-05-15T11:17:07;22.10;85.70
74153;DHT22;62505;46.070;14.492;2023-05-15T11:19:53;22.10;85.50
74153;DHT22;62505;46.070;14.492;2023-05-15T11:22:27;22.00;85.40
74153;DHT22;62505;46.070;14.492;2023-05-15T11:24:57;22.00;85.30
74153;DHT22;62505;46.070;14.492;2023-05-15T11:27:27;22.10;85.50
74153;DHT22;62505;46.070;14.492;2023-05-15T11:30:09;22.10;85.30
74153;DHT22;62505;46.070;14.492;2023-05-15T11:32:43;22.00;85.40
74153;DHT22;62505;46.070;14.492;2023-05-15T11:35:11;22.10;85.20
74153;DHT22;62505;46.070;14.492;2023-05-15T11:37:43;22.00;85.20
74153;DHT22;62505;46.070;14.492;2023-05-15T11:40:18;22.00;85.90
74153;DHT22;62505;46.070;14.492;2023-05-15T11:42:58;22.10;85.10
74153;DHT22;62505;46.070;14.492;2023-05-15T11:45:26;22.10;85.30
74153;DHT22;62505;46.070;14.492;2023-05-15T11:47:53;22.00;84.80
74153;DHT22;62505;46.070;14.492;2023-05-15T11:50:21;22.10;84.80
74153;DHT22;62505;46.070;14.492;2023-05-15T11:52:50;22.00;84.90
74153;DHT22;62505;46.070;14.492;2023-05-15T11:55:18;22.00;84.90
74153;DHT22;62505;46.070;14.492;2023-05-15T11:57:45;22.00;84.80
74153;DHT22;62505;46.070;14.492;2023-05-15T12:00:12;22.00;84.90
74153;DHT22;62505;46.070;14.492;2023-05-15T12:02:40;22.10;84.90
74153;DHT22;62505;46.070;14.492;2023-05-15T12:05:07;22.00;84.80
74153;DHT22;62505;46.070;14.492;2023-05-15T12:07:36;22.10;84.50
74153;DHT22;62505;46.070;14.492;2023-05-15T12:10:06;22.10;84.60
74153;DHT22;62505;46.070;14.492;2023-05-15T12:12:35;22.00;84.50
74153;DHT22;62505;46.070;14.492;2023-05-15T12:15:02;22.10;84.50
74153;DHT22;62505;46.070;14.492;2023-05-15T12:17:30;22.00;84.60
74153;DHT22;62505;46.070;14.492;2023-05-15T12:19:58;22.10;84.40
74153;DHT22;62505;46.070;14.492;2023-05-15T12:22:26;22.00;84.50
74153;DHT22;62505;46.070;14.492;2023-05-15T12:24:57;22.10;84.50
74153;DHT22;62505;46.070;14.492;2023-05-15T12:27:25;22.10;84.30
74153;DHT22;62505;46.070;14.492;2023-05-15T12:29:53;22.10;84.30
74153;DHT22;62505;46.070;14.492;2023-05-15T12:32:20;22.10;84.30
74153;DHT22;62505;46.070;14.492;2023-05-15T12:34:47;22.00;84.20
74153;DHT22;62505;46.070;14.492;2023-05-15T12:37:14;22.10;84.00
74153;DHT22;62505;46.070;14.492;2023-05-15T12:39:50;22.10;84.00
74153;DHT22;62505;46.070;14.492;2023-05-15T12:42:17;22.00;83.90
74153;DHT22;62505;46.070;14.492;2023-05-15T12:44:45;22.00;83.90
74153;DHT22;62505;46.070;14.492;2023-05-15T12:47:13;22.00;83.70
74153;DHT22;62505;46.070;14.492;2023-05-15T12:49:41;22.00;83.30
74153;DHT22;62505;46.070;14.492;2023-05-15T12:52:08;22.10;83.00
74153;DHT22;62505;46.070;14.492;2023-05-15T12:54:38;22.10;83.10
74153;DHT22;62505;46.070;14.492;2023-05-15T12:57:06;22.10;83.00
74153;DHT22;62505;46.070;14.492;2023-05-15T12:59:34;22.10;82.80
74153;DHT22;62505;46.070;14.492;2023-05-15T13:02:02;22.10;82.70
74153;DHT22;62505;46.070;14.492;2023-05-15T13:04:31;22.10;81.50
74153;DHT22;62505;46.070;14.492;2023-05-15T13:06:58;22.20;81.50
74153;DHT22;62505;46.070;14.492;2023-05-15T13:09:25;22.20;81.40
74153;DHT22;62505;46.070;14.492;2023-05-15T13:11:53;22.20;81.10
74153;DHT22;62505;46.070;14.492;2023-05-15T13:14:20;22.20;82.10
74153;DHT22;62505;46.070;14.492;2023-05-15T13:16:51;22.20;80.90
74153;DHT22;62505;46.070;14.492;2023-05-15T13:19:20;22.20;80.70
74153;DHT22;62505;46.070;14.492;2023-05-15T13:21:47;22.20;80.90
74153;DHT22;62505;46.070;14.492;2023-05-15T13:24:15;22.20;79.60
74153;DHT22;62505;46.070;14.492;2023-05-15T13:26:42;22.10;78.30
74153;DHT22;62505;46.070;14.492;2023-05-15T13:29:09;22.20;77.80
74153;DHT22;62505;46.070;14.492;2023-05-15T13:31:36;22.10;78.10
74153;DHT22;62505;46.070;14.492;2023-05-15T13:34:02;22.10;77.50
74153;DHT22;62505;46.070;14.492;2023-05-15T13:36:31;22.10;76.90
74153;DHT22;62505;46.070;14.492;2023-05-15T13:38:57;22.20;77.10
74153;DHT22;62505;46.070;14.492;2023-05-15T13:41:24;22.20;76.70
74153;DHT22;62505;46.070;14.492;2023-05-15T13:43:51;22.10;76.30
74153;DHT22;62505;46.070;14.492;2023-05-15T13:46:18;22.20;75.60
74153;DHT22;62505;46.070;14.492;2023-05-15T13:48:45;22.20;75.30
74153;DHT22;62505;46.070;14.492;2023-05-15T13:51:12;22.20;75.30
74153;DHT22;62505;46.070;14.492;2023-05-15T13:53:40;22.10;74.40
74153;DHT22;62505;46.070;14.492;2023-05-15T13:56:07;22.10;74.00
74153;DHT22;62505;46.070;14.492;2023-05-15T13:58:34;22.10;71.80
74153;DHT22;62505;46.070;14.492;2023-05-15T14:01:04;22.10;71.60
74153;DHT22;62505;46.070;14.492;2023-05-15T14:03:31;22.10;71.20
74153;DHT22;62505;46.070;14.492;2023-05-15T14:05:58;22.10;70.00
74153;DHT22;62505;46.070;14.492;2023-05-15T14:08:25;22.10;69.30
74153;DHT22;62505;46.070;14.492;2023-05-15T14:10:54;22.10;70.20
74153;DHT22;62505;46.070;14.492;2023-05-15T14:13:21;22.10;69.20
74153;DHT22;62505;46.070;14.492;2023-05-15T14:15:48;22.10;71.10
74153;DHT22;62505;46.070;14.492;2023-05-15T14:18:15;22.10;72.30
74153;DHT22;62505;46.070;14.492;2023-05-15T14:20:42;22.10;70.90
74153;DHT22;62505;46.070;14.492;2023-05-15T14:23:09;22.10;72.80
74153;DHT22;62505;46.070;14.492;2023-05-15T14:25:36;22.10;71.70
74153;DHT22;62505;46.070;14.492;2023-05-15T14:28:04;22.10;71.30
74153;DHT22;62505;46.070;14.492;2023-05-15T14:30:31;22.20;71.20
74153;DHT22;62505;46.070;14.492;2023-05-15T14:32:58;22.20;72.20
74153;DHT22;62505;46.070;14.492;2023-05-15T14:35:25;22.20;70.60
74153;DHT22;62505;46.070;14.492;2023-05-15T14:37:52;22.20;71.20
74153;DHT22;62505;46.070;14.492;2023-05-15T14:40:19;22.20;69.80
74153;DHT22;62505;46.070;14.492;2023-05-15T14:42:46;22.20;70.10
74153;DHT22;62505;46.070;14.492;2023-05-15T14:45:14;22.20;70.10
74153;DHT22;62505;46.070;14.492;2023-05-15T14:47:41;22.20;72.30
74153;DHT22;62505;46.070;14.492;2023-05-15T14:50:08;22.20;70.10
74153;DHT22;62505;46.070;14.492;2023-05-15T14:52:35;22.20;71.40
74153;DHT22;62505;46.070;14.492;2023-05-15T14:55:02;22.20;71.30
74153;DHT22;62505;46.070;14.492;2023-05-15T14:57:30;22.20;70.30
74153;DHT22;62505;46.070;14.492;2023-05-15T14:59:57;22.20;72.10
74153;DHT22;62505;46.070;14.492;2023-05-15T15:02:26;22.20;72.00
74153;DHT22;62505;46.070;14.492;2023-05-15T15:04:52;22.20;71.10
74153;DHT22;62505;46.070;14.492;2023-05-15T15:07:19;22.20;71.80
74153;DHT22;62505;46.070;14.492;2023-05-15T15:09:46;22.20;72.00
74153;DHT22;62505;46.070;14.492;2023-05-15T15:12:13;22.20;71.60
74153;DHT22;62505;46.070;14.492;2023-05-15T15:14:40;22.20;71.90
74153;DHT22;62505;46.070;14.492;2023-05-15T15:17:07;22.20;72.00
74153;DHT22;62505;46.070;14.492;2023-05-15T15:19:35;22.20;72.30
74153;DHT22;62505;46.070;14.492;2023-05-15T15:22:02;22.20;72.10